หน้าหลัก
METAR-TAF:

METAR-TAF

ท่าอากาศยาน :

เอ็นจาเมนา, ชาด

ละติจูด: 12-08N, ลองจิจูด: 015-02E, ความสูง: 295 ม.

การสังเกตสภาพอากาศปัจจุบัน

รายงานได้ทำขึ้นเมื่อ 1 ชั่วโมงและ 19 นาทีที่แล้ว ณ เวลา 08:00 UTC
ลม 9 นอตจากเหนือ/ตะวันออกเฉียงเหนือ
อุณหภูมิ 28°C
ความชื้น 32%
ความกดอากาศ 1015 hPa
ทัศนวิสัย: 6000 ม.

METAR: FTTJ 250800Z 03009KT 6000 NSC 28/10 Q1015 NOSIG

เวลา: 10:19 (09:19 UTC)

การพยากรณ์

รายงานได้ทำขึ้นเมื่อ 4 ชั่วโมงและ 19 นาทีที่แล้ว ณ เวลา 05:00 UTC
การพยากรณ์มีผลตั้งแต่วันที่ 25 ณ เวลา 06 UTC จนถึงวันที่ 26 ณ เวลา 12 UTC
ลม 10 นอตจากเหนือ/ตะวันออกเฉียงเหนือ
ทัศนวิสัย: 7000 ม.
ชั่วคราว
ตั้งแต่วันที่ 25 ณ เวลา 16 UTC จนถึงวันที่ 25 ณ เวลา 20 UTC
ทัศนวิสัย: 4000 ม.
ฝุ่นละอองแผ่เป็นวงกว้าง,

TAF: FTTJ 250500Z 2506/2612 03010KT 7000 NSC TEMPO 2516/2520 4000 DU

สังเกตการณ์สภาพอากาศและพยากรณ์อากาศของสนามบินมากกว่า 4000 แห่ง (รายงาน METAR และ TAF).

สถานีที่ดูได้จะแสดงไว้ด้วยจุดสีเหลืองและสีแดงบนแผนที่.

เลื่อนเมาส์ไปเหนือจุดเพื่อดูชื่อสถานี.

แล้วคลิกเพื่อดูสังเกตการณ์และการพยากรณ์สภาพอากาศ.

ในการเปลี่ยนแผนที่: คลิกที่ปุ่มสีเขียวที่มีกากบาทสีดำเพื่อซูมเข้า; ที่ปุ่มสีเขียวที่มีขีดเพื่อซูมออก; หรือที่ลูกศรสีเขียวเพื่อไปยังแผนที่ที่อยู่ติดกัน.


METAR-TAF: